Groningen, Minnesota
Current Conditions -  °F | °C
As of 4:27 PM on Tuesday 25 Nov 2014 (Local Time) from K04W Reporting Station
Overcast Overcast  
Wind Chill: 19°   Ceiling: 6000
Heat Index: 19°   Visibility: 10mi
Dew Point: 12°   Wind: 0mph
Humidity: 74%   Direction: NA
Pressure: 30.01"   Gusts: NA
Location:  46.138°N, 92.5611°W
Report Text: K04W 252227Z AUTO 00000KT 10SM SCT041 OVC060 M07/M11 A3001 RMK AO2
Loading
Personal Weather Stations






























Interactive Weather Map New forecast layout! Learn more

10-Day Weather Forecast

Advertisements
Track Severe Weather on mobile